createdAt,value
2017-12-14T00:01:15.797Z,95277.34
2017-12-14T00:03:43.410Z,95284.97
2017-12-14T00:06:11.030Z,95286.31
2017-12-14T00:08:38.620Z,95276.83
2017-12-14T00:11:06.219Z,95282.84
2017-12-14T00:13:34.329Z,95274.58
2017-12-14T00:16:01.980Z,95266.83
2017-12-14T00:18:29.589Z,95256.84
2017-12-14T00:20:57.158Z,95238.16
2017-12-14T00:23:24.905Z,95235.75
2017-12-14T00:25:52.499Z,95243.78
2017-12-14T00:28:20.091Z,95239.22
2017-12-14T00:30:47.666Z,95246.28
2017-12-14T00:33:15.290Z,95245.00
2017-12-14T00:35:42.929Z,95244.56
2017-12-14T00:38:10.586Z,95248.30
2017-12-14T00:40:38.154Z,95252.89
2017-12-14T00:43:05.779Z,95244.13
2017-12-14T00:45:33.435Z,95243.71
2017-12-14T00:48:00.995Z,95241.20
2017-12-14T00:50:28.643Z,95255.41
2017-12-14T00:52:56.215Z,95251.30
2017-12-14T00:55:23.800Z,95255.91
2017-12-14T00:57:51.643Z,95257.12
2017-12-14T01:00:19.279Z,95245.45
2017-12-14T01:02:46.863Z,95238.77
2017-12-14T01:05:14.429Z,95240.44
2017-12-14T01:07:42.105Z,95218.28
2017-12-14T01:10:09.689Z,95218.64
2017-12-14T01:12:37.295Z,95213.22
2017-12-14T01:15:04.870Z,95198.98
2017-12-14T01:17:32.523Z,95206.93
2017-12-14T01:20:00.105Z,95207.36
2017-12-14T01:22:27.695Z,95218.59
2017-12-14T01:24:55.285Z,95211.06
2017-12-14T01:27:22.862Z,95211.06
2017-12-14T01:29:50.443Z,95209.38
2017-12-14T01:32:18.020Z,95208.96
2017-12-14T01:34:45.607Z,95221.48
2017-12-14T01:37:13.316Z,95206.47
2017-12-14T01:39:41.291Z,95207.31
2017-12-14T01:42:08.871Z,95208.97
2017-12-14T01:44:36.451Z,95211.05
2017-12-14T01:47:04.045Z,95193.10
2017-12-14T01:49:31.602Z,95196.45
2017-12-14T01:51:59.327Z,95191.84
2017-12-14T01:54:26.901Z,95187.25
2017-12-14T01:56:54.519Z,95186.41
2017-12-14T01:59:22.155Z,95188.06
2017-12-14T02:01:49.770Z,95185.97
2017-12-14T02:04:17.337Z,95188.86
2017-12-14T02:06:44.915Z,95193.02
2017-12-14T02:09:12.537Z,95174.67
2017-12-14T02:14:14.033Z,95162.14
2017-12-14T02:16:41.653Z,95157.53
2017-12-14T02:19:09.257Z,95164.20
2017-12-14T02:21:36.819Z,95156.27
2017-12-14T02:24:04.473Z,95170.03
2017-12-14T02:26:32.047Z,95170.84
2017-12-14T02:29:00.057Z,95149.12
2017-12-14T02:31:27.633Z,95147.87
2017-12-14T02:33:55.213Z,95143.27
2017-12-14T02:36:22.856Z,95132.41
2017-12-14T02:38:50.429Z,95132.78
2017-12-14T02:41:18.031Z,95121.48
2017-12-14T02:43:45.589Z,95120.25
2017-12-14T02:46:13.223Z,95130.25
2017-12-14T02:48:40.793Z,95118.98
2017-12-14T02:51:08.413Z,95128.56
2017-12-14T02:53:35.977Z,95122.73
2017-12-14T02:56:03.557Z,95120.68
2017-12-14T02:58:31.168Z,95117.34
2017-12-14T03:00:58.743Z,95124.05
2017-12-14T03:03:26.326Z,95099.45
2017-12-14T03:05:53.889Z,95107.79
2017-12-14T03:08:21.507Z,95106.57
2017-12-14T03:10:49.078Z,95100.77
2017-12-14T03:13:16.713Z,95090.86
2017-12-14T03:15:44.311Z,95080.17
2017-12-14T03:18:11.885Z,95097.45
2017-12-14T03:20:39.526Z,95092.61
2017-12-14T03:23:07.121Z,95093.78
2017-12-14T03:25:34.753Z,95081.39
2017-12-14T03:28:02.381Z,95089.92
2017-12-14T03:30:29.983Z,95084.15
2017-12-14T03:32:57.563Z,95079.59
2017-12-14T03:35:25.193Z,95080.82
2017-12-14T03:37:52.754Z,95078.73
2017-12-14T03:40:20.358Z,95092.13
2017-12-14T03:42:47.935Z,95084.18
2017-12-14T03:45:15.512Z,95098.00
2017-12-14T03:47:43.109Z,95084.96
2017-12-14T03:50:10.708Z,95102.16
2017-12-14T03:52:38.310Z,95078.24
2017-12-14T03:55:05.891Z,95086.20
2017-12-14T03:57:33.470Z,95097.11
2017-12-14T04:00:01.100Z,95083.25
2017-12-14T04:02:28.685Z,95079.83
2017-12-14T04:04:56.251Z,95078.11
2017-12-14T04:07:23.849Z,95074.36
2017-12-14T04:09:51.436Z,95057.56
2017-12-14T04:12:19.357Z,95075.61
2017-12-14T04:14:46.937Z,95086.93
2017-12-14T04:17:14.502Z,95071.46
2017-12-14T04:19:42.081Z,95082.31
2017-12-14T04:22:09.703Z,95094.89
2017-12-14T04:24:37.390Z,95092.41
2017-12-14T04:27:04.980Z,95092.01
2017-12-14T04:29:32.716Z,95094.13
2017-12-14T04:32:00.280Z,95088.25
2017-12-14T04:34:27.896Z,95079.42
2017-12-14T04:36:55.488Z,95078.59
2017-12-14T04:39:23.319Z,95074.83
2017-12-14T04:41:50.904Z,95076.92
2017-12-14T04:44:18.487Z,95071.89
2017-12-14T04:46:46.113Z,95074.38
2017-12-14T04:49:13.678Z,95069.34
2017-12-14T04:51:41.296Z,95071.02
2017-12-14T04:54:08.864Z,95074.41
2017-12-14T04:56:36.430Z,95076.09
2017-12-14T04:59:04.041Z,95078.16
2017-12-14T05:01:31.686Z,95079.45
2017-12-14T05:03:59.266Z,95076.09
2017-12-14T05:06:26.856Z,95080.30
2017-12-14T05:08:54.436Z,95081.14
2017-12-14T05:11:22.190Z,95082.38
2017-12-14T05:13:49.864Z,95082.41
2017-12-14T05:16:17.436Z,95082.80
2017-12-14T05:18:45.055Z,95085.31
2017-12-14T05:21:17.446Z,95086.99
2017-12-14T05:23:45.038Z,95094.95
2017-12-14T05:26:12.643Z,95092.84
2017-12-14T05:28:40.286Z,95100.80
2017-12-14T05:31:07.882Z,95086.55
2017-12-14T05:33:35.577Z,95125.56
2017-12-14T05:36:03.136Z,95110.04
2017-12-14T05:38:30.820Z,95098.32
2017-12-14T05:40:58.440Z,95082.43
2017-12-14T05:43:26.022Z,95080.73
2017-12-14T05:45:53.596Z,95077.79
2017-12-14T05:48:21.183Z,95080.73
2017-12-14T05:50:48.758Z,95082.41
2017-12-14T05:53:16.350Z,95076.56
2017-12-14T05:55:43.997Z,95074.06
2017-12-14T05:58:11.558Z,95071.97
2017-12-14T06:00:39.176Z,95067.36
2017-12-14T06:03:06.749Z,95070.31
2017-12-14T06:05:34.360Z,95081.22
2017-12-14T06:08:01.953Z,95078.29
2017-12-14T06:10:29.555Z,95089.17
2017-12-14T06:12:57.161Z,95088.73
2017-12-14T06:15:24.742Z,95084.08
2017-12-14T06:17:52.325Z,95092.92
2017-12-14T06:20:19.899Z,95126.87
2017-12-14T06:22:47.477Z,95216.67
2017-12-14T06:25:15.053Z,95245.12
2017-12-14T06:27:42.637Z,95264.97
2017-12-14T06:30:10.212Z,95279.62
2017-12-14T06:32:37.790Z,95302.61
2017-12-14T06:35:05.370Z,95327.25
2017-12-14T06:37:32.959Z,95327.61
2017-12-14T06:40:00.577Z,95319.19
2017-12-14T06:42:28.150Z,95338.36
2017-12-14T06:44:55.754Z,95354.16
2017-12-14T06:47:23.381Z,95375.34
2017-12-14T06:49:51.005Z,95360.34
2017-12-14T06:52:18.580Z,95369.86
2017-12-14T06:54:46.202Z,95357.30
2017-12-14T06:57:13.758Z,95358.97
2017-12-14T06:59:41.315Z,95355.66
2017-12-14T07:02:08.939Z,95350.27
2017-12-14T07:04:36.527Z,95333.61
2017-12-14T07:07:04.126Z,95337.83
2017-12-14T07:09:31.701Z,95363.36
2017-12-14T07:11:59.319Z,95362.13
2017-12-14T07:14:26.908Z,95380.13
2017-12-14T07:16:54.520Z,95406.04
2017-12-14T07:19:22.105Z,95406.45
2017-12-14T07:21:49.682Z,95388.53
2017-12-14T07:24:17.305Z,95378.05
2017-12-14T07:26:44.924Z,95408.13
2017-12-14T07:29:12.506Z,95408.16
2017-12-14T07:31:40.081Z,95423.17
2017-12-14T07:34:07.679Z,95431.12
2017-12-14T07:36:35.257Z,95441.56
2017-12-14T07:39:02.892Z,95466.20
2017-12-14T07:41:30.511Z,95473.73
2017-12-14T07:44:10.061Z,95486.67
2017-12-14T07:46:50.026Z,95485.80
2017-12-14T07:49:24.315Z,95470.36
2017-12-14T07:51:51.890Z,95422.70
2017-12-14T07:54:19.454Z,95441.93
2017-12-14T07:56:47.054Z,95445.27
2017-12-14T07:59:14.626Z,95476.59
2017-12-14T08:01:42.202Z,95492.02
2017-12-14T08:04:09.816Z,95499.94
2017-12-14T08:06:37.406Z,95481.51
2017-12-14T08:09:04.987Z,95463.91
2017-12-14T08:11:32.616Z,95456.42
2017-12-14T08:14:00.172Z,95453.45
2017-12-14T08:16:27.745Z,95450.06
2017-12-14T08:18:55.351Z,95478.46
2017-12-14T08:21:22.923Z,95526.87
2017-12-14T08:23:50.618Z,95578.27
2017-12-14T08:26:18.220Z,95596.68
2017-12-14T08:28:45.822Z,95564.09
2017-12-14T08:31:13.386Z,95554.03
2017-12-14T08:33:41.005Z,95559.88
2017-12-14T08:36:08.555Z,95572.02
2017-12-14T08:38:36.127Z,95597.42
2017-12-14T08:41:04.226Z,95597.45
2017-12-14T08:43:32.369Z,95589.91
2017-12-14T08:46:00.042Z,95595.34
2017-12-14T08:48:27.603Z,95605.42
2017-12-14T08:50:55.222Z,95593.39
2017-12-14T08:53:22.801Z,95617.66
2017-12-14T08:55:50.461Z,95623.56
2017-12-14T08:58:18.030Z,95616.11
2017-12-14T09:00:45.617Z,95621.13
2017-12-14T09:03:13.228Z,95632.80
2017-12-14T09:05:40.829Z,95636.98
2017-12-14T09:08:08.455Z,95636.27
2017-12-14T09:10:36.032Z,95645.08
2017-12-14T09:13:03.628Z,95655.98
2017-12-14T09:15:31.202Z,95663.14
2017-12-14T09:17:58.867Z,95661.56
2017-12-14T09:20:26.446Z,95667.92
2017-12-14T09:22:54.044Z,95669.61
2017-12-14T09:25:21.615Z,95683.88
2017-12-14T09:27:49.212Z,95686.93
2017-12-14T09:30:16.778Z,95683.70
2017-12-14T09:32:44.351Z,95682.67
2017-12-14T09:35:11.960Z,95691.17
2017-12-14T09:37:39.548Z,95683.38
2017-12-14T09:40:07.195Z,95696.03
2017-12-14T09:42:34.766Z,95689.01
2017-12-14T09:45:02.405Z,95694.10
2017-12-14T09:47:29.958Z,95684.94
2017-12-14T09:49:57.561Z,95703.41
2017-12-14T09:52:25.137Z,95698.44
2017-12-14T09:54:52.725Z,95706.92
2017-12-14T09:57:20.323Z,95698.64
2017-12-14T09:59:47.932Z,95713.40
2017-12-14T10:02:15.538Z,95723.57
2017-12-14T10:04:43.105Z,95727.92
2017-12-14T10:07:10.707Z,95731.41
2017-12-14T10:09:38.319Z,95725.13
2017-12-14T10:12:05.947Z,95725.44
2017-12-14T10:14:33.517Z,95734.67
2017-12-14T10:17:01.137Z,95733.86
2017-12-14T10:19:28.722Z,95737.33
2017-12-14T10:21:56.299Z,95728.13
2017-12-14T10:24:23.909Z,95729.10
2017-12-14T10:26:51.486Z,95725.34
2017-12-14T10:29:19.078Z,95727.95
2017-12-14T10:31:46.652Z,95724.10
2017-12-14T10:34:14.265Z,95723.31
2017-12-14T10:36:41.857Z,95713.58
2017-12-14T10:39:09.434Z,95720.29
2017-12-14T10:41:37.001Z,95702.36
2017-12-14T10:44:04.761Z,95708.67
2017-12-14T10:46:32.319Z,95708.70
2017-12-14T10:48:59.961Z,95689.01
2017-12-14T10:51:27.533Z,95687.73
2017-12-14T10:53:55.133Z,95684.39
2017-12-14T10:56:22.717Z,95678.05
2017-12-14T10:58:50.311Z,95679.30
2017-12-14T11:01:23.587Z,95670.09
2017-12-14T11:03:51.159Z,95668.45
2017-12-14T11:06:18.835Z,95665.13
2017-12-14T11:08:46.416Z,95655.59
2017-12-14T11:11:14.019Z,95648.12
2017-12-14T11:13:41.613Z,95651.07
2017-12-14T11:16:09.205Z,95648.88
2017-12-14T11:18:36.847Z,95631.20
2017-12-14T11:21:04.457Z,95635.77
2017-12-14T11:23:32.071Z,95640.78
2017-12-14T11:25:59.674Z,95643.30
2017-12-14T11:28:27.275Z,95634.98
2017-12-14T11:30:54.857Z,95627.05
2017-12-14T11:33:22.447Z,95616.20
2017-12-14T11:35:50.002Z,95616.17
2017-12-14T11:38:17.661Z,95611.52
2017-12-14T11:40:45.264Z,95613.55
2017-12-14T11:43:12.840Z,95609.41
2017-12-14T11:45:40.455Z,95606.09
2017-12-14T11:48:08.025Z,95613.59
2017-12-14T11:50:35.743Z,95611.81
2017-12-14T11:53:03.326Z,95603.77
2017-12-14T11:55:30.970Z,95601.22
2017-12-14T11:57:58.551Z,95612.52
2017-12-14T12:00:26.149Z,95612.94
2017-12-14T12:02:53.741Z,95611.66
2017-12-14T12:05:21.351Z,95607.86
2017-12-14T12:07:48.985Z,95611.20
2017-12-14T12:10:16.727Z,95606.17
2017-12-14T12:12:44.305Z,95604.09
2017-12-14T12:15:11.880Z,95598.69
2017-12-14T12:17:39.566Z,95590.73
2017-12-14T12:20:07.141Z,95594.89
2017-12-14T12:22:34.747Z,95596.99
2017-12-14T12:25:02.324Z,95591.11
2017-12-14T12:27:29.911Z,95594.08
2017-12-14T12:29:57.503Z,95593.63
2017-12-14T12:32:25.099Z,95597.05
2017-12-14T12:34:52.690Z,95599.15
2017-12-14T12:37:20.268Z,95598.31
2017-12-14T12:39:47.926Z,95596.23
2017-12-14T12:42:15.549Z,95590.80
2017-12-14T12:44:43.144Z,95587.02
2017-12-14T12:47:10.727Z,95595.78
2017-12-14T12:49:38.308Z,95592.41
2017-12-14T12:52:05.930Z,95599.11
2017-12-14T12:54:33.536Z,95592.42
2017-12-14T12:57:01.136Z,95585.72
2017-12-14T12:59:28.998Z,95590.81
2017-12-14T13:01:56.600Z,95584.52
2017-12-14T13:04:24.160Z,95581.57
2017-12-14T13:06:51.764Z,95579.93
2017-12-14T13:09:19.310Z,95576.59
2017-12-14T13:11:46.894Z,95570.27
2017-12-14T13:14:14.493Z,95573.59
2017-12-14T13:16:42.080Z,95569.83
2017-12-14T13:19:09.685Z,95563.16
2017-12-14T13:21:37.286Z,95564.87
2017-12-14T13:24:05.908Z,95565.75
2017-12-14T13:26:33.494Z,95573.28
2017-12-14T13:29:01.120Z,95563.22
2017-12-14T13:31:28.719Z,95560.27
2017-12-14T13:33:56.367Z,95571.58
2017-12-14T13:36:23.940Z,95566.53
2017-12-14T13:38:51.550Z,95570.70
2017-12-14T13:41:19.144Z,95563.92
2017-12-14T13:43:46.732Z,95563.88
2017-12-14T13:46:14.333Z,95567.61
2017-12-14T13:48:41.948Z,95571.78
2017-12-14T13:51:09.552Z,95563.78
2017-12-14T13:53:37.110Z,95567.08
2017-12-14T13:56:04.726Z,95578.35
2017-12-14T13:58:32.329Z,95567.79
2017-12-14T14:00:59.954Z,95566.51
2017-12-14T14:03:27.558Z,95564.77
2017-12-14T14:05:55.184Z,95564.75
2017-12-14T14:08:22.775Z,95564.69
2017-12-14T14:10:50.506Z,95553.77
2017-12-14T14:13:18.114Z,95557.53
2017-12-14T14:15:45.689Z,95563.77
2017-12-14T14:18:13.321Z,95555.75
2017-12-14T14:20:40.904Z,95553.65
2017-12-14T14:23:08.500Z,95551.11
2017-12-14T14:25:36.058Z,95558.18
2017-12-14T14:28:03.637Z,95546.89
2017-12-14T14:30:31.228Z,95548.95
2017-12-14T14:32:58.848Z,95551.83
2017-12-14T14:35:26.449Z,95546.41
2017-12-14T14:37:54.069Z,95547.19
2017-12-14T14:40:21.686Z,95540.03
2017-12-14T14:42:49.273Z,95537.49
2017-12-14T14:45:16.882Z,95524.08
2017-12-14T14:47:44.490Z,95533.75
2017-12-14T14:50:12.160Z,95532.02
2017-12-14T14:52:39.744Z,95530.73
2017-12-14T14:55:07.326Z,95525.30
2017-12-14T14:57:34.924Z,95529.45
2017-12-14T15:00:02.486Z,95525.25
2017-12-14T15:02:30.100Z,95521.44
2017-12-14T15:04:57.730Z,95515.57
2017-12-14T15:07:25.373Z,95517.23
2017-12-14T15:09:53.344Z,95510.95
2017-12-14T15:12:21.009Z,95509.67
2017-12-14T15:14:48.609Z,95507.14
2017-12-14T15:17:16.214Z,95506.70
2017-12-14T15:19:43.897Z,95500.10
2017-12-14T15:22:11.499Z,95493.75
2017-12-14T15:24:39.127Z,95504.63
2017-12-14T15:27:06.714Z,95492.52
2017-12-14T15:29:34.336Z,95495.38
2017-12-14T15:32:01.950Z,95488.25
2017-12-14T15:34:29.546Z,95488.70
2017-12-14T15:36:57.118Z,95489.09
2017-12-14T15:39:24.738Z,95487.41
2017-12-14T15:41:52.326Z,95484.47
2017-12-14T15:44:19.980Z,95480.69
2017-12-14T15:46:47.555Z,95479.05
2017-12-14T15:49:15.165Z,95474.45
2017-12-14T15:51:42.752Z,95469.02
2017-12-14T15:54:10.317Z,95472.75
2017-12-14T15:56:37.973Z,95468.13
2017-12-14T15:59:05.572Z,95462.23
2017-12-14T16:01:33.156Z,95450.92
2017-12-14T16:04:00.732Z,95446.72
2017-12-14T16:06:28.338Z,95449.64
2017-12-14T16:08:55.892Z,95442.14
2017-12-14T16:11:23.485Z,95441.72
2017-12-14T16:13:51.053Z,95434.18
2017-12-14T16:16:18.638Z,95431.23
2017-12-14T16:18:46.223Z,95432.88
2017-12-14T16:21:13.878Z,95429.92
2017-12-14T16:23:41.486Z,95420.25
2017-12-14T16:26:09.091Z,95410.63
2017-12-14T16:28:36.682Z,95411.02
2017-12-14T16:31:04.299Z,95407.23
2017-12-14T16:33:31.887Z,95412.63
2017-12-14T16:35:59.584Z,95420.95
2017-12-14T16:38:27.185Z,95412.15
2017-12-14T16:40:54.807Z,95415.90
2017-12-14T16:43:22.498Z,95420.04
2017-12-14T16:45:50.059Z,95414.20
2017-12-14T16:48:17.655Z,95410.88
2017-12-14T16:50:45.266Z,95408.88
2017-12-14T16:53:12.865Z,95402.17
2017-12-14T16:55:40.476Z,95389.69
2017-12-14T16:58:08.061Z,95380.47
2017-12-14T17:00:36.098Z,95379.64
2017-12-14T17:03:03.699Z,95364.98
2017-12-14T17:05:31.286Z,95360.39
2017-12-14T17:07:58.887Z,95358.28
2017-12-14T17:10:26.576Z,95360.81
2017-12-14T17:12:54.215Z,95360.80
2017-12-14T17:15:21.795Z,95356.21
2017-12-14T17:17:49.382Z,95342.83
2017-12-14T17:20:17.011Z,95335.29
2017-12-14T17:22:44.586Z,95335.70
2017-12-14T17:25:12.197Z,95329.41
2017-12-14T17:27:39.848Z,95338.13
2017-12-14T17:30:07.483Z,95328.91
2017-12-14T17:32:35.216Z,95316.78
2017-12-14T17:35:03.151Z,95302.58
2017-12-14T17:37:30.748Z,95292.52
2017-12-14T17:39:58.339Z,95299.59
2017-12-14T17:42:25.937Z,95302.11
2017-12-14T17:44:53.547Z,95302.94
2017-12-14T17:47:21.154Z,95295.41
2017-12-14T17:49:48.776Z,95294.53
2017-12-14T17:52:16.363Z,95320.39
2017-12-14T17:54:43.951Z,95330.41
2017-12-14T17:57:11.646Z,95328.70
2017-12-14T17:59:39.244Z,95322.00
2017-12-14T18:02:06.848Z,95314.04
2017-12-14T18:04:34.503Z,95316.55
2017-12-14T18:07:02.143Z,95313.64
2017-12-14T18:09:29.778Z,95311.16
2017-12-14T18:11:57.444Z,95299.88
2017-12-14T18:14:25.039Z,95300.70
2017-12-14T18:16:52.716Z,95300.30
2017-12-14T18:19:20.341Z,95305.33
2017-12-14T18:21:47.955Z,95288.66
2017-12-14T18:24:16.598Z,95286.56
2017-12-14T18:26:44.237Z,95273.20
2017-12-14T18:29:12.240Z,95275.69
2017-12-14T18:31:39.867Z,95278.20
2017-12-14T18:34:07.543Z,95266.47
2017-12-14T18:36:35.155Z,95257.71
2017-12-14T18:39:02.881Z,95248.92
2017-12-14T18:41:31.164Z,95243.08
2017-12-14T18:43:58.910Z,95241.03
2017-12-14T18:46:26.513Z,95238.97
2017-12-14T18:48:54.197Z,95216.77
2017-12-14T18:51:21.863Z,95217.27
2017-12-14T18:53:49.451Z,95212.23
2017-12-14T18:56:17.081Z,95203.88
2017-12-14T18:58:44.681Z,95215.53
2017-12-14T19:01:12.419Z,95237.69
2017-12-14T19:03:39.999Z,95248.14
2017-12-14T19:06:07.629Z,95245.63
2017-12-14T19:08:35.270Z,95240.61
2017-12-14T19:11:02.904Z,95237.69
2017-12-14T19:13:30.535Z,95234.77
2017-12-14T19:15:58.136Z,95215.95
2017-12-14T19:18:25.784Z,95206.77
2017-12-14T19:20:53.399Z,95197.56
2017-12-14T19:23:21.018Z,95192.13
2017-12-14T19:25:48.620Z,95192.16
2017-12-14T19:28:16.228Z,95175.03
2017-12-14T19:30:43.864Z,95165.41
2017-12-14T19:33:11.569Z,95164.59
2017-12-14T19:35:39.300Z,95169.58
2017-12-14T19:38:07.150Z,95177.95
2017-12-14T19:40:34.832Z,95197.19
2017-12-14T19:43:02.606Z,95210.56
2017-12-14T19:45:31.372Z,95201.75
2017-12-14T19:47:59.108Z,95198.03
2017-12-14T19:50:26.832Z,95190.95
2017-12-14T19:52:54.576Z,95191.80
2017-12-14T19:55:22.359Z,95191.00
2017-12-14T19:57:50.102Z,95180.98
2017-12-14T20:00:18.564Z,95149.25
2017-12-14T20:02:46.368Z,95140.06
2017-12-14T20:05:14.110Z,95148.02
2017-12-14T20:07:41.838Z,95149.26
2017-12-14T20:10:09.572Z,95144.28
2017-12-14T20:12:37.359Z,95130.05
2017-12-14T20:15:05.114Z,95132.59
2017-12-14T20:17:32.884Z,95135.97
2017-12-14T20:20:00.696Z,95135.57
2017-12-14T20:22:28.475Z,95141.86
2017-12-14T20:24:56.188Z,95135.17
2017-12-14T20:27:23.918Z,95132.67
2017-12-14T20:29:51.635Z,95130.59
2017-12-14T20:32:19.417Z,95136.47
2017-12-14T20:34:47.178Z,95133.11
2017-12-14T20:37:15.059Z,95129.78
2017-12-14T20:39:42.763Z,95130.20
2017-12-14T20:42:10.515Z,95129.38
2017-12-14T20:44:38.235Z,95128.53
2017-12-14T20:47:05.984Z,95122.25
2017-12-14T20:49:33.667Z,95128.95
2017-12-14T20:52:01.388Z,95133.53
2017-12-14T20:54:30.165Z,95117.66
2017-12-14T20:56:57.866Z,95113.05
2017-12-14T20:59:25.586Z,95109.73
2017-12-14T21:01:53.313Z,95114.77
2017-12-14T21:04:21.308Z,95112.30
2017-12-14T21:06:49.054Z,95111.08
2017-12-14T21:09:16.889Z,95112.75
2017-12-14T21:11:44.538Z,95114.02
2017-12-14T21:14:12.214Z,95119.03
2017-12-14T21:16:39.928Z,95113.63
2017-12-14T21:19:07.581Z,95106.10
2017-12-14T21:21:35.248Z,95104.86
2017-12-14T21:24:02.990Z,95101.94
2017-12-14T21:26:30.633Z,95092.71
2017-12-14T21:28:58.254Z,95106.09
2017-12-14T21:31:25.878Z,95113.63
2017-12-14T21:33:53.486Z,95105.67
2017-12-14T21:36:21.146Z,95100.23
2017-12-14T21:38:48.736Z,95093.13
2017-12-14T21:41:16.411Z,95081.81
2017-12-14T21:43:43.984Z,95085.58
2017-12-14T21:46:11.590Z,95094.78
2017-12-14T21:48:39.182Z,95101.47
2017-12-14T21:51:06.815Z,95096.44
2017-12-14T21:53:34.414Z,95085.13
2017-12-14T21:56:02.043Z,95083.05
2017-12-14T21:58:29.666Z,95086.36
2017-12-14T22:00:57.305Z,95048.71
2017-12-14T22:03:24.911Z,95047.45
2017-12-14T22:05:52.501Z,95048.27
2017-12-14T22:08:20.157Z,95028.19
2017-12-14T22:10:47.731Z,95028.98
2017-12-14T22:13:15.373Z,95044.84
2017-12-14T22:15:42.974Z,95047.34
2017-12-14T22:18:10.575Z,95023.95
2017-12-14T22:20:38.148Z,95021.02
2017-12-14T22:23:05.750Z,95021.02
2017-12-14T22:25:33.364Z,95017.27
2017-12-14T22:28:01.002Z,95021.03
2017-12-14T22:30:28.605Z,95030.63
2017-12-14T22:32:56.213Z,95041.50
2017-12-14T22:35:23.835Z,95033.99
2017-12-14T22:37:51.413Z,95044.85
2017-12-14T22:40:19.031Z,95041.08
2017-12-14T22:42:46.643Z,95037.31
2017-12-14T22:45:14.277Z,95034.00
2017-12-14T22:47:41.891Z,95031.90
2017-12-14T22:50:09.495Z,95029.41
2017-12-14T22:52:37.062Z,95021.91
2017-12-14T22:55:04.670Z,95008.50
2017-12-14T22:57:32.313Z,95006.00
2017-12-14T22:59:59.910Z,95004.36
2017-12-14T23:02:27.545Z,94993.88
2017-12-14T23:04:55.143Z,94994.33
2017-12-14T23:07:22.785Z,95003.09
2017-12-14T23:09:50.402Z,94994.33
2017-12-14T23:12:18.033Z,94998.07
2017-12-14T23:14:45.612Z,95005.61
2017-12-14T23:17:13.193Z,94999.77
2017-12-14T23:19:40.775Z,94997.23
2017-12-14T23:22:08.461Z,95004.77
2017-12-14T23:24:36.206Z,95011.03
2017-12-14T23:27:03.838Z,95023.14
2017-12-14T23:29:31.783Z,95025.23
2017-12-14T23:31:59.375Z,95037.77
2017-12-14T23:34:27.007Z,95031.09
2017-12-14T23:36:54.615Z,95026.50
2017-12-14T23:39:22.227Z,95018.53
2017-12-14T23:41:49.801Z,95010.18
2017-12-14T23:44:17.437Z,95001.00
2017-12-14T23:46:45.070Z,94979.28
2017-12-14T23:49:12.928Z,94952.08
2017-12-14T23:51:40.513Z,94916.98
2017-12-14T23:54:08.098Z,94909.87
2017-12-14T23:56:35.732Z,94919.06
2017-12-14T23:59:03.339Z,94957.09
